Time,TemperatureF,DewpointF,PressureIn,WindDirection,WindDirectionDegrees,WindSpeedMPH,WindSpeedGustMPH,Humidity,HourlyPrecipIn,Conditions,Clouds,dailyrainin,SoftwareType,DateUTC
2013-05-18 00:13:00,60.0,54.0,29.72,NW,314,4.0,7.0,81,0.00,,,0.00,weatherlink.com 1.10,2013-05-17 22:13:00,
2013-05-18 00:28:00,60.2,55.0,29.71,NW,308,4.0,-999.0,82,-99.99,,,0.00,weatherlink.com 1.10,2013-05-17 22:28:00,
2013-05-18 00:43:00,60.5,55.0,29.71,NNW,342,8.0,10.0,81,0.00,,,0.00,weatherlink.com 1.10,2013-05-17 22:43:00,
2013-05-18 00:58:00,60.9,55.0,29.71,NW,314,6.0,9.0,81,0.00,,,0.00,weatherlink.com 1.10,2013-05-17 22:58:00,
2013-05-18 01:14:00,60.8,55.0,29.71,NNW,335,6.0,10.0,82,0.00,,,0.00,weatherlink.com 1.10,2013-05-17 23:14:00,
2013-05-18 01:29:00,61.0,55.0,29.70,NNW,327,9.0,12.0,81,0.00,,,0.00,weatherlink.com 1.10,2013-05-17 23:29:00,
2013-05-18 01:44:00,61.4,55.0,29.70,NNW,338,6.0,14.0,80,0.00,,,0.00,weatherlink.com 1.10,2013-05-17 23:44:00,
2013-05-18 01:59:00,61.3,55.0,29.71,NW,325,5.0,14.0,79,0.00,,,0.00,weatherlink.com 1.10,2013-05-17 23:59:00,
2013-05-18 02:14:00,61.8,55.0,29.70,NNW,336,7.0,13.0,79,0.00,,,0.00,weatherlink.com 1.10,2013-05-18 00:14:00,
2013-05-18 02:29:00,62.6,56.0,29.70,NNW,341,11.0,25.0,80,0.00,,,0.00,weatherlink.com 1.10,2013-05-18 00:29:00,
2013-05-18 02:44:00,62.5,57.0,29.69,NNW,327,15.0,25.0,83,0.00,,,0.00,weatherlink.com 1.10,2013-05-18 00:44:00,
2013-05-18 02:59:00,62.4,57.0,29.69,NNW,340,24.0,25.0,82,0.00,,,0.00,weatherlink.com 1.10,2013-05-18 00:59:00,
2013-05-18 03:14:00,62.7,56.0,29.69,NNE,13,18.0,30.0,80,0.00,,,0.00,weatherlink.com 1.10,2013-05-18 01:14:00,
2013-05-18 03:29:00,62.6,56.0,29.69,North,6,25.0,25.0,80,0.00,,,0.00,weatherlink.com 1.10,2013-05-18 01:29:00,
2013-05-18 03:44:00,62.4,57.0,29.69,NNW,327,18.0,29.0,81,0.00,,,0.00,weatherlink.com 1.10,2013-05-18 01:44:00,
2013-05-18 03:59:00,62.1,57.0,29.69,NE,41,15.0,28.0,83,0.00,,,0.00,weatherlink.com 1.10,2013-05-18 01:59:00,
2013-05-18 04:14:00,62.1,57.0,29.69,North,356,27.0,31.0,82,0.00,,,0.00,weatherlink.com 1.10,2013-05-18 02:14:00,
2013-05-18 04:29:00,61.7,57.0,29.68,NNE,25,21.0,30.0,84,0.00,,,0.00,weatherlink.com 1.10,2013-05-18 02:29:00,
2013-05-18 04:44:00,60.8,57.0,29.69,NW,314,14.0,28.0,87,0.00,,,0.00,weatherlink.com 1.10,2013-05-18 02:44:00,
2013-05-18 04:59:00,60.7,57.0,29.68,North,349,19.0,34.0,86,0.00,,,0.00,weatherlink.com 1.10,2013-05-18 02:59:00,
2013-05-18 05:14:00,60.7,57.0,29.68,North,355,25.0,31.0,86,0.00,,,0.00,weatherlink.com 1.10,2013-05-18 03:14:00,
2013-05-18 05:29:00,61.0,57.0,29.68,NNW,333,10.0,26.0,86,0.00,,,0.00,weatherlink.com 1.10,2013-05-18 03:29:00,
2013-05-18 05:44:00,61.2,57.0,29.68,North,351,29.0,32.0,86,0.00,,,0.00,weatherlink.com 1.10,2013-05-18 03:44:00,
2013-05-18 05:59:00,61.2,57.0,29.68,NNW,341,17.0,25.0,86,0.00,,,0.00,weatherlink.com 1.10,2013-05-18 03:59:00,
2013-05-18 06:14:00,60.8,57.0,29.68,North,1,18.0,26.0,87,0.00,,,0.00,weatherlink.com 1.10,2013-05-18 04:14:00,
2013-05-18 06:29:00,59.4,57.0,29.69,North,352,16.0,24.0,93,0.00,,,0.00,weatherlink.com 1.10,2013-05-18 04:29:00,
2013-05-18 06:44:00,58.9,57.0,29.68,NNW,343,18.0,29.0,94,0.00,,,0.00,weatherlink.com 1.10,2013-05-18 04:44:00,
2013-05-18 06:59:00,58.7,57.0,29.69,North,6,12.0,28.0,95,0.01,,,0.01,weatherlink.com 1.10,2013-05-18 04:59:00,
2013-05-18 07:14:00,58.4,57.0,29.69,NNW,331,19.0,33.0,96,0.03,,,0.03,weatherlink.com 1.10,2013-05-18 05:14:00,
2013-05-18 07:29:00,58.3,58.0,29.70,NNE,13,21.0,35.0,97,0.03,,,0.03,weatherlink.com 1.10,2013-05-18 05:29:00,
2013-05-18 07:44:00,58.3,58.0,29.70,NNW,340,10.0,27.0,97,0.03,,,0.03,weatherlink.com 1.10,2013-05-18 05:44:00,
2013-05-18 07:59:00,58.5,58.0,29.71,NNE,12,12.0,32.0,98,0.02,,,0.03,weatherlink.com 1.10,2013-05-18 05:59:00,
2013-05-18 08:14:00,58.4,58.0,29.72,NNW,339,23.0,30.0,97,0.00,,,0.03,weatherlink.com 1.10,2013-05-18 06:14:00,
2013-05-18 08:29:00,58.3,58.0,29.72,NNE,23,11.0,27.0,98,0.00,,,0.03,weatherlink.com 1.10,2013-05-18 06:29:00,
2013-05-18 08:44:00,58.2,58.0,29.72,NW,315,17.0,30.0,98,0.00,,,0.03,weatherlink.com 1.10,2013-05-18 06:44:00,
2013-05-18 09:00:00,58.2,58.0,29.73,NNW,343,17.0,29.0,98,0.00,,,0.03,weatherlink.com 1.10,2013-05-18 07:00:00,
2013-05-18 09:15:00,58.3,58.0,29.73,NNE,32,14.0,30.0,98,0.00,,,0.03,weatherlink.com 1.10,2013-05-18 07:15:00,
2013-05-18 09:30:00,58.7,58.0,29.72,NNW,343,14.0,27.0,98,0.00,,,0.03,weatherlink.com 1.10,2013-05-18 07:30:00,
2013-05-18 09:45:00,58.8,58.0,29.74,North,352,18.0,27.0,98,0.00,,,0.03,weatherlink.com 1.10,2013-05-18 07:45:00,
2013-05-18 10:00:00,59.0,59.0,29.74,NNE,18,18.0,27.0,98,0.00,,,0.03,weatherlink.com 1.10,2013-05-18 08:00:00,
2013-05-18 10:15:00,59.2,59.0,29.74,NW,322,6.0,25.0,98,0.00,,,0.03,weatherlink.com 1.10,2013-05-18 08:15:00,
2013-05-18 10:30:00,56.3,56.0,29.76,ENE,71,11.0,18.0,97,0.14,,,0.17,weatherlink.com 1.10,2013-05-18 08:30:00,
2013-05-18 10:45:00,56.6,56.0,29.76,ENE,76,9.0,11.0,98,0.14,,,0.17,weatherlink.com 1.10,2013-05-18 08:45:00,
2013-05-18 11:00:00,57.2,57.0,29.77,NE,53,10.0,12.0,98,0.14,,,0.17,weatherlink.com 1.10,2013-05-18 09:00:00,
2013-05-18 11:15:00,57.4,56.0,29.77,ENE,61,12.0,14.0,95,0.14,,,0.17,weatherlink.com 1.10,2013-05-18 09:15:00,
2013-05-18 11:30:00,59.4,56.0,29.77,ENE,63,4.0,12.0,87,0.00,,,0.17,weatherlink.com 1.10,2013-05-18 09:30:00,
2013-05-18 11:45:00,59.9,54.0,29.78,NE,44,12.0,15.0,80,0.00,,,0.17,weatherlink.com 1.10,2013-05-18 09:45:00,
2013-05-18 12:00:00,60.4,54.0,29.78,NE,50,10.0,14.0,79,0.00,,,0.17,weatherlink.com 1.10,2013-05-18 10:00:00,
2013-05-18 12:15:00,60.7,54.0,29.79,NNE,25,6.0,19.0,79,0.00,,,0.17,weatherlink.com 1.10,2013-05-18 10:15:00,
2013-05-18 12:30:00,61.7,54.0,29.79,East,89,6.0,19.0,76,0.00,,,0.17,weatherlink.com 1.10,2013-05-18 10:30:00,
2013-05-18 12:45:00,62.6,51.0,29.79,NE,53,14.0,22.0,67,0.00,,,0.17,weatherlink.com 1.10,2013-05-18 10:45:00,
2013-05-18 13:00:00,62.3,48.0,29.79,East,80,16.0,23.0,60,0.00,,,0.17,weatherlink.com 1.10,2013-05-18 11:00:00,
2013-05-18 13:15:00,62.2,48.0,29.80,NE,36,14.0,22.0,60,0.00,,,0.17,weatherlink.com 1.10,2013-05-18 11:15:00,
2013-05-18 13:30:00,63.1,49.0,29.80,East,88,18.0,24.0,60,0.00,,,0.17,weatherlink.com 1.10,2013-05-18 11:30:00,
2013-05-18 13:45:00,63.4,48.0,29.80,NE,53,20.0,23.0,57,0.00,,,0.17,weatherlink.com 1.10,2013-05-18 11:45:00,
2013-05-18 14:00:00,64.3,47.0,29.80,NE,54,20.0,30.0,54,0.00,,,0.17,weatherlink.com 1.10,2013-05-18 12:00:00,
2013-05-18 14:15:00,64.4,47.0,29.80,ENE,66,10.0,27.0,54,0.00,,,0.17,weatherlink.com 1.10,2013-05-18 12:15:00,
2013-05-18 14:30:00,64.3,47.0,29.80,ENE,65,13.0,26.0,53,0.00,,,0.17,weatherlink.com 1.10,2013-05-18 12:30:00,
2013-05-18 14:45:00,64.9,47.0,29.80,East,86,25.0,28.0,52,0.00,,,0.17,weatherlink.com 1.10,2013-05-18 12:45:00,
2013-05-18 15:00:00,64.5,47.0,29.80,NE,53,23.0,25.0,53,0.00,,,0.17,weatherlink.com 1.10,2013-05-18 13:00:00,
2013-05-18 15:15:00,64.2,46.0,29.80,North,352,19.0,28.0,52,0.00,,,0.17,weatherlink.com 1.10,2013-05-18 13:15:00,
2013-05-18 15:30:00,64.1,46.0,29.81,NNW,345,17.0,28.0,52,0.00,,,0.17,weatherlink.com 1.10,2013-05-18 13:30:00,
2013-05-18 15:45:00,64.6,46.0,29.81,NE,56,13.0,26.0,52,0.00,,,0.17,weatherlink.com 1.10,2013-05-18 13:45:00,
2013-05-18 16:00:00,64.0,46.0,29.81,ENE,61,18.0,26.0,53,0.00,,,0.17,weatherlink.com 1.10,2013-05-18 14:00:00,
2013-05-18 16:15:00,63.5,46.0,29.81,ENE,63,19.0,25.0,53,0.00,,,0.17,weatherlink.com 1.10,2013-05-18 14:15:00,
2013-05-18 16:30:00,64.2,45.0,29.81,East,79,17.0,24.0,50,0.00,,,0.17,weatherlink.com 1.10,2013-05-18 14:30:00,
2013-05-18 16:45:00,64.4,45.0,29.81,ENE,61,24.0,26.0,49,0.00,,,0.17,weatherlink.com 1.10,2013-05-18 14:45:00,
2013-05-18 17:00:00,64.3,45.0,29.82,East,86,22.0,25.0,50,0.00,,,0.17,weatherlink.com 1.10,2013-05-18 15:00:00,
2013-05-18 17:15:00,64.6,46.0,29.82,NNE,27,15.0,26.0,52,0.00,,,0.17,weatherlink.com 1.10,2013-05-18 15:15:00,
2013-05-18 17:30:00,64.1,46.0,29.82,ENE,72,19.0,29.0,52,0.00,,,0.17,weatherlink.com 1.10,2013-05-18 15:30:00,
2013-05-18 17:45:00,64.3,43.0,29.83,ENE,70,14.0,29.0,46,0.00,,,0.17,weatherlink.com 1.10,2013-05-18 15:45:00,
2013-05-18 18:00:00,64.2,45.0,29.83,NE,53,24.0,25.0,50,0.00,,,0.17,weatherlink.com 1.10,2013-05-18 16:00:00,
2013-05-18 18:15:00,64.1,45.0,29.83,ENE,60,17.0,25.0,50,0.00,,,0.17,weatherlink.com 1.10,2013-05-18 16:15:00,
2013-05-18 18:30:00,64.4,46.0,29.84,NE,34,21.0,21.0,52,0.00,,,0.17,weatherlink.com 1.10,2013-05-18 16:30:00,
2013-05-18 18:45:00,64.2,46.0,29.84,ENE,60,19.0,24.0,52,0.00,,,0.17,weatherlink.com 1.10,2013-05-18 16:45:00,
2013-05-18 19:01:00,63.9,47.0,29.84,East,80,16.0,23.0,54,0.00,,,0.17,weatherlink.com 1.10,2013-05-18 17:01:00,
2013-05-18 19:16:00,63.7,46.0,29.85,NE,46,17.0,24.0,53,0.00,,,0.17,weatherlink.com 1.10,2013-05-18 17:16:00,
2013-05-18 19:31:00,63.4,47.0,29.86,ENE,66,19.0,22.0,55,0.00,,,0.17,weatherlink.com 1.10,2013-05-18 17:31:00,
2013-05-18 19:46:00,63.2,47.0,29.86,NE,39,21.0,22.0,55,0.00,,,0.17,weatherlink.com 1.10,2013-05-18 17:46:00,
2013-05-18 20:01:00,62.9,46.0,29.87,NE,45,12.0,22.0,55,0.00,,,0.17,weatherlink.com 1.10,2013-05-18 18:01:00,
2013-05-18 20:16:00,62.6,48.0,29.88,NNE,18,14.0,20.0,59,0.00,,,0.17,weatherlink.com 1.10,2013-05-18 18:16:00,
2013-05-18 20:31:00,62.1,49.0,29.89,NE,40,11.0,14.0,62,0.00,,,0.17,weatherlink.com 1.10,2013-05-18 18:31:00,
2013-05-18 20:46:00,61.2,49.0,29.89,NNE,27,13.0,18.0,65,0.00,,,0.17,weatherlink.com 1.10,2013-05-18 18:46:00,
2013-05-18 21:01:00,60.7,49.0,29.90,NE,54,10.0,17.0,65,0.00,,,0.17,weatherlink.com 1.10,2013-05-18 19:01:00,
2013-05-18 21:16:00,60.2,49.0,29.90,NE,37,10.0,15.0,66,0.00,,,0.17,weatherlink.com 1.10,2013-05-18 19:16:00,
2013-05-18 21:31:00,60.0,51.0,29.90,NE,47,11.0,15.0,71,0.00,,,0.17,weatherlink.com 1.10,2013-05-18 19:31:00,
2013-05-18 21:46:00,59.9,52.0,29.90,NE,39,12.0,16.0,74,0.00,,,0.17,weatherlink.com 1.10,2013-05-18 19:46:00,
2013-05-18 22:01:00,59.8,52.0,29.90,NE,56,9.0,16.0,75,0.00,,,0.17,weatherlink.com 1.10,2013-05-18 20:01:00,
2013-05-18 22:16:00,59.5,52.0,29.91,ENE,57,14.0,17.0,75,0.00,,,0.17,weatherlink.com 1.10,2013-05-18 20:16:00,
2013-05-18 22:31:00,59.2,52.0,29.91,NE,47,10.0,16.0,76,0.00,,,0.17,weatherlink.com 1.10,2013-05-18 20:31:00,
2013-05-18 22:46:00,59.3,51.0,29.91,NE,53,12.0,16.0,75,0.00,,,0.17,weatherlink.com 1.10,2013-05-18 20:46:00,
2013-05-18 23:01:00,59.3,51.0,29.92,ENE,57,10.0,17.0,74,0.00,,,0.17,weatherlink.com 1.10,2013-05-18 21:01:00,
2013-05-18 23:16:00,59.2,51.0,29.92,NE,40,10.0,16.0,74,0.00,,,0.17,weatherlink.com 1.10,2013-05-18 21:16:00,
2013-05-18 23:31:00,59.0,51.0,29.92,NE,51,6.0,14.0,75,0.00,,,0.17,weatherlink.com 1.10,2013-05-18 21:31:00,
2013-05-18 23:46:00,58.8,51.0,29.92,ENE,67,5.0,10.0,76,0.00,,,0.17,weatherlink.com 1.10,2013-05-18 21:46:00,